sensor_id;sensor_type;location;lat;lon;timestamp;pressure;altitude;pressure_sealevel;temperature;humidity
64889;BME280;51386;53.082;8.816;2023-04-23T00:01:27;100560.16;;;20.45;54.52
64889;BME280;51386;53.082;8.816;2023-04-23T00:03:56;100569.72;;;20.41;54.50
64889;BME280;51386;53.082;8.816;2023-04-23T00:06:25;100553.38;;;20.37;54.08
64889;BME280;51386;53.082;8.816;2023-04-23T00:08:53;100556.75;;;20.33;53.75
64889;BME280;51386;53.082;8.816;2023-04-23T00:11:21;100560.41;;;20.27;53.24
64889;BME280;51386;53.082;8.816;2023-04-23T00:13:49;100563.22;;;20.20;53.00
64889;BME280;51386;53.082;8.816;2023-04-23T00:16:18;100564.97;;;20.14;53.35
64889;BME280;51386;53.082;8.816;2023-04-23T00:18:46;100562.22;;;20.09;52.60
64889;BME280;51386;53.082;8.816;2023-04-23T00:21:14;100557.28;;;20.01;52.10
64889;BME280;51386;53.082;8.816;2023-04-23T00:23:41;100557.19;;;19.96;52.49
64889;BME280;51386;53.082;8.816;2023-04-23T00:26:08;100567.22;;;19.89;52.02
64889;BME280;51386;53.082;8.816;2023-04-23T00:28:35;100568.72;;;19.85;51.81
64889;BME280;51386;53.082;8.816;2023-04-23T00:31:02;100564.91;;;19.81;51.96
64889;BME280;51386;53.082;8.816;2023-04-23T00:33:30;100566.44;;;19.77;51.83
64889;BME280;51386;53.082;8.816;2023-04-23T00:35:57;100573.28;;;19.73;51.92
64889;BME280;51386;53.082;8.816;2023-04-23T00:38:24;100578.78;;;19.67;51.85
64889;BME280;51386;53.082;8.816;2023-04-23T00:40:52;100584.28;;;19.60;51.89
64889;BME280;51386;53.082;8.816;2023-04-23T00:43:19;100582.06;;;19.57;52.20
64889;BME280;51386;53.082;8.816;2023-04-23T00:45:47;100583.34;;;19.54;51.92
64889;BME280;51386;53.082;8.816;2023-04-23T00:48:15;100587.31;;;19.52;52.21
64889;BME280;51386;53.082;8.816;2023-04-23T00:50:43;100584.53;;;19.47;52.44
64889;BME280;51386;53.082;8.816;2023-04-23T00:53:10;100586.88;;;19.43;52.10
64889;BME280;51386;53.082;8.816;2023-04-23T00:55:37;100590.81;;;19.41;52.25
64889;BME280;51386;53.082;8.816;2023-04-23T00:58:04;100583.53;;;19.36;52.29
64889;BME280;51386;53.082;8.816;2023-04-23T01:00:34;100580.25;;;19.34;52.35
64889;BME280;51386;53.082;8.816;2023-04-23T01:03:06;100585.25;;;19.31;52.51
64889;BME280;51386;53.082;8.816;2023-04-23T01:05:33;100581.66;;;19.25;52.55
64889;BME280;51386;53.082;8.816;2023-04-23T01:08:02;100585.50;;;19.18;52.25
64889;BME280;51386;53.082;8.816;2023-04-23T01:10:30;100583.19;;;19.10;52.53
64889;BME280;51386;53.082;8.816;2023-04-23T01:12:59;100584.59;;;19.01;52.72
64889;BME280;51386;53.082;8.816;2023-04-23T01:15:26;100586.00;;;18.91;52.71
64889;BME280;51386;53.082;8.816;2023-04-23T01:17:53;100581.56;;;18.85;52.63
64889;BME280;51386;53.082;8.816;2023-04-23T01:20:19;100582.50;;;18.79;52.64
64889;BME280;51386;53.082;8.816;2023-04-23T01:22:48;100584.59;;;18.77;52.52
64889;BME280;51386;53.082;8.816;2023-04-23T01:25:15;100582.38;;;18.74;52.41
64889;BME280;51386;53.082;8.816;2023-04-23T01:27:43;100590.84;;;18.71;52.52
64889;BME280;51386;53.082;8.816;2023-04-23T01:30:11;100584.38;;;18.67;52.44
64889;BME280;51386;53.082;8.816;2023-04-23T01:32:39;100597.56;;;18.62;52.76
64889;BME280;51386;53.082;8.816;2023-04-23T01:35:07;100589.91;;;18.54;52.77
64889;BME280;51386;53.082;8.816;2023-04-23T01:37:37;100589.56;;;18.51;52.71
64889;BME280;51386;53.082;8.816;2023-04-23T01:40:07;100591.25;;;18.45;52.92
64889;BME280;51386;53.082;8.816;2023-04-23T01:42:35;100589.06;;;18.42;53.08
64889;BME280;51386;53.082;8.816;2023-04-23T01:45:03;100594.28;;;18.37;53.11
64889;BME280;51386;53.082;8.816;2023-04-23T01:47:30;100586.72;;;18.34;52.96
64889;BME280;51386;53.082;8.816;2023-04-23T01:49:57;100586.97;;;18.33;53.00
64889;BME280;51386;53.082;8.816;2023-04-23T01:52:25;100592.50;;;18.31;53.01
64889;BME280;51386;53.082;8.816;2023-04-23T01:54:52;100598.88;;;18.30;52.78
64889;BME280;51386;53.082;8.816;2023-04-23T01:57:21;100596.44;;;18.28;52.70
64889;BME280;51386;53.082;8.816;2023-04-23T02:00:02;100604.91;;;18.25;52.70
64889;BME280;51386;53.082;8.816;2023-04-23T02:02:34;100606.75;;;18.25;52.79
64889;BME280;51386;53.082;8.816;2023-04-23T02:05:02;100606.75;;;18.25;52.75
64889;BME280;51386;53.082;8.816;2023-04-23T02:07:30;100600.22;;;18.21;52.52
64889;BME280;51386;53.082;8.816;2023-04-23T02:09:58;100615.28;;;18.15;52.55
64889;BME280;51386;53.082;8.816;2023-04-23T02:12:26;100609.00;;;18.10;51.99
64889;BME280;51386;53.082;8.816;2023-04-23T02:14:53;100602.97;;;18.03;51.93
64889;BME280;51386;53.082;8.816;2023-04-23T02:17:21;100596.91;;;17.96;51.69
64889;BME280;51386;53.082;8.816;2023-04-23T02:19:49;100598.28;;;17.87;51.65
64889;BME280;51386;53.082;8.816;2023-04-23T02:22:16;100604.47;;;17.81;51.69
64889;BME280;51386;53.082;8.816;2023-04-23T02:24:44;100609.69;;;17.76;51.81
64889;BME280;51386;53.082;8.816;2023-04-23T02:27:13;100608.28;;;17.73;51.67
64889;BME280;51386;53.082;8.816;2023-04-23T02:29:41;100607.91;;;17.70;51.77
64889;BME280;51386;53.082;8.816;2023-04-23T02:32:09;100604.28;;;17.64;51.46
64889;BME280;51386;53.082;8.816;2023-04-23T02:34:36;100607.63;;;17.59;51.56
64889;BME280;51386;53.082;8.816;2023-04-23T02:37:03;100608.53;;;17.53;51.61
64889;BME280;51386;53.082;8.816;2023-04-23T02:39:31;100610.78;;;17.50;51.49
64889;BME280;51386;53.082;8.816;2023-04-23T02:41:58;100615.75;;;17.46;51.57
64889;BME280;51386;53.082;8.816;2023-04-23T02:44:25;100619.88;;;17.42;51.60
64889;BME280;51386;53.082;8.816;2023-04-23T02:46:53;100607.03;;;17.39;51.73
64889;BME280;51386;53.082;8.816;2023-04-23T02:49:20;100609.31;;;17.36;51.70
64889;BME280;51386;53.082;8.816;2023-04-23T02:51:47;100621.44;;;17.32;51.84
64889;BME280;51386;53.082;8.816;2023-04-23T02:54:14;100615.72;;;17.28;51.98
64889;BME280;51386;53.082;8.816;2023-04-23T02:56:41;100628.44;;;17.26;51.83
64889;BME280;51386;53.082;8.816;2023-04-23T02:59:10;100625.19;;;17.24;52.06
64889;BME280;51386;53.082;8.816;2023-04-23T03:01:37;100621.34;;;17.20;52.16
64889;BME280;51386;53.082;8.816;2023-04-23T03:04:05;100629.75;;;17.17;52.08
64889;BME280;51386;53.082;8.816;2023-04-23T03:06:33;100633.31;;;17.11;52.25
64889;BME280;51386;53.082;8.816;2023-04-23T03:09:01;100628.66;;;17.07;52.24
64889;BME280;51386;53.082;8.816;2023-04-23T03:11:28;100638.09;;;17.03;52.33
64889;BME280;51386;53.082;8.816;2023-04-23T03:13:55;100644.06;;;16.98;52.44
64889;BME280;51386;53.082;8.816;2023-04-23T03:16:22;100639.41;;;16.93;52.52
64889;BME280;51386;53.082;8.816;2023-04-23T03:18:49;100648.41;;;16.92;52.40
64889;BME280;51386;53.082;8.816;2023-04-23T03:21:17;100642.28;;;16.92;52.65
64889;BME280;51386;53.082;8.816;2023-04-23T03:23:44;100651.28;;;16.91;52.76
64889;BME280;51386;53.082;8.816;2023-04-23T03:26:11;100645.97;;;16.91;52.68
64889;BME280;51386;53.082;8.816;2023-04-23T03:28:38;100640.66;;;16.91;52.66
64889;BME280;51386;53.082;8.816;2023-04-23T03:31:05;100637.41;;;16.89;52.79
64889;BME280;51386;53.082;8.816;2023-04-23T03:33:32;100642.13;;;16.87;52.73
64889;BME280;51386;53.082;8.816;2023-04-23T03:35:59;100646.63;;;16.86;52.92
64889;BME280;51386;53.082;8.816;2023-04-23T03:38:27;100639.47;;;16.87;53.03
64889;BME280;51386;53.082;8.816;2023-04-23T03:40:54;100634.75;;;16.89;53.39
64889;BME280;51386;53.082;8.816;2023-04-23T03:43:22;100647.63;;;16.92;53.12
64889;BME280;51386;53.082;8.816;2023-04-23T03:45:49;100643.09;;;16.92;53.02
64889;BME280;51386;53.082;8.816;2023-04-23T03:48:16;100652.69;;;16.93;52.94
64889;BME280;51386;53.082;8.816;2023-04-23T03:50:43;100649.22;;;16.93;53.06
64889;BME280;51386;53.082;8.816;2023-04-23T03:53:09;100650.88;;;16.94;52.88
64889;BME280;51386;53.082;8.816;2023-04-23T03:55:38;100649.22;;;16.93;52.73
64889;BME280;51386;53.082;8.816;2023-04-23T03:58:05;100647.22;;;16.88;52.57
64889;BME280;51386;53.082;8.816;2023-04-23T04:00:32;100651.34;;;16.84;52.73
64889;BME280;51386;53.082;8.816;2023-04-23T04:02:59;100646.47;;;16.81;52.49
64889;BME280;51386;53.082;8.816;2023-04-23T04:05:28;100653.03;;;16.79;52.38
64889;BME280;51386;53.082;8.816;2023-04-23T04:07:55;100653.44;;;16.76;52.38
64889;BME280;51386;53.082;8.816;2023-04-23T04:10:22;100656.34;;;16.74;52.42
64889;BME280;51386;53.082;8.816;2023-04-23T04:12:50;100669.03;;;16.72;52.39
64889;BME280;51386;53.082;8.816;2023-04-23T04:15:17;100666.59;;;16.71;52.53
64889;BME280;51386;53.082;8.816;2023-04-23T04:17:46;100665.38;;;16.67;52.49
64889;BME280;51386;53.082;8.816;2023-04-23T04:20:13;100660.53;;;16.64;52.53
64889;BME280;51386;53.082;8.816;2023-04-23T04:22:40;100655.63;;;16.61;52.56
64889;BME280;51386;53.082;8.816;2023-04-23T04:25:08;100663.81;;;16.59;52.57
64889;BME280;51386;53.082;8.816;2023-04-23T04:27:35;100662.41;;;16.57;52.31
64889;BME280;51386;53.082;8.816;2023-04-23T04:30:06;100667.09;;;16.55;52.44
64889;BME280;51386;53.082;8.816;2023-04-23T04:32:33;100666.09;;;16.56;52.55
64889;BME280;51386;53.082;8.816;2023-04-23T04:35:01;100664.03;;;16.58;52.66
64889;BME280;51386;53.082;8.816;2023-04-23T04:37:28;100662.41;;;16.57;52.32
64889;BME280;51386;53.082;8.816;2023-04-23T04:39:55;100666.09;;;16.56;52.64
64889;BME280;51386;53.082;8.816;2023-04-23T04:42:22;100662.00;;;16.53;52.55
64889;BME280;51386;53.082;8.816;2023-04-23T04:44:51;100667.56;;;16.52;52.35
64889;BME280;51386;53.082;8.816;2023-04-23T04:47:19;100665.88;;;16.51;52.84
64889;BME280;51386;53.082;8.816;2023-04-23T04:49:46;100672.22;;;16.50;52.39
64889;BME280;51386;53.082;8.816;2023-04-23T04:52:14;100680.19;;;16.50;52.46
64889;BME280;51386;53.082;8.816;2023-04-23T04:54:41;100674.88;;;16.50;52.59
64889;BME280;51386;53.082;8.816;2023-04-23T04:57:09;100673.84;;;16.51;52.60
64889;BME280;51386;53.082;8.816;2023-04-23T04:59:36;100679.16;;;16.51;52.51
64889;BME280;51386;53.082;8.816;2023-04-23T05:02:03;100680.84;;;16.52;52.62
64889;BME280;51386;53.082;8.816;2023-04-23T05:04:33;100670.38;;;16.50;52.74
64889;BME280;51386;53.082;8.816;2023-04-23T05:06:59;100665.50;;;16.47;52.61
64889;BME280;51386;53.082;8.816;2023-04-23T05:09:26;100672.66;;;16.47;52.53
64889;BME280;51386;53.082;8.816;2023-04-23T05:11:53;100677.38;;;16.45;52.63
64889;BME280;51386;53.082;8.816;2023-04-23T05:14:20;100682.06;;;16.43;52.47
64889;BME280;51386;53.082;8.816;2023-04-23T05:16:47;100679.41;;;16.43;52.50
64889;BME280;51386;53.082;8.816;2023-04-23T05:19:15;100674.09;;;16.43;52.40
64889;BME280;51386;53.082;8.816;2023-04-23T05:21:43;100667.19;;;16.42;52.24
64889;BME280;51386;53.082;8.816;2023-04-23T05:24:10;100668.00;;;16.42;52.67
64889;BME280;51386;53.082;8.816;2023-04-23T05:26:37;100668.38;;;16.46;52.64
64889;BME280;51386;53.082;8.816;2023-04-23T05:29:04;100667.94;;;16.49;52.47
64889;BME280;51386;53.082;8.816;2023-04-23T05:31:31;100667.56;;;16.52;52.18
64889;BME280;51386;53.082;8.816;2023-04-23T05:33:58;100665.69;;;16.52;52.10
64889;BME280;51386;53.082;8.816;2023-04-23T05:36:25;100677.13;;;16.53;52.31
64889;BME280;51386;53.082;8.816;2023-04-23T05:38:54;100680.19;;;16.50;52.03
64889;BME280;51386;53.082;8.816;2023-04-23T05:41:21;100681.81;;;16.51;52.19
64889;BME280;51386;53.082;8.816;2023-04-23T05:43:48;100691.03;;;16.55;51.98
64889;BME280;51386;53.082;8.816;2023-04-23T05:46:15;100696.56;;;16.53;51.99
64889;BME280;51386;53.082;8.816;2023-04-23T05:48:42;100693.25;;;16.58;52.40
64889;BME280;51386;53.082;8.816;2023-04-23T05:51:10;100688.00;;;16.51;52.33
64889;BME280;51386;53.082;8.816;2023-04-23T05:53:36;100692.28;;;16.46;52.80
64889;BME280;51386;53.082;8.816;2023-04-23T05:56:05;100689.91;;;16.38;52.69
64889;BME280;51386;53.082;8.816;2023-04-23T05:58:32;100679.50;;;16.30;53.21
64889;BME280;51386;53.082;8.816;2023-04-23T06:00:59;100677.66;;;16.30;52.80
64889;BME280;51386;53.082;8.816;2023-04-23T06:03:26;100684.41;;;16.33;53.05
64889;BME280;51386;53.082;8.816;2023-04-23T06:05:53;100685.03;;;16.28;53.14
64889;BME280;51386;53.082;8.816;2023-04-23T06:08:20;100675.44;;;16.27;53.31
64889;BME280;51386;53.082;8.816;2023-04-23T06:10:50;100684.19;;;16.34;52.96
64889;BME280;51386;53.082;8.816;2023-04-23T06:13:18;100674.09;;;16.43;52.78
64889;BME280;51386;53.082;8.816;2023-04-23T06:15:45;100679.47;;;16.36;53.05
64889;BME280;51386;53.082;8.816;2023-04-23T06:18:12;100680.09;;;16.32;52.83
64889;BME280;51386;53.082;8.816;2023-04-23T06:20:39;100681.56;;;16.27;53.23
64889;BME280;51386;53.082;8.816;2023-04-23T06:23:06;100675.63;;;16.32;52.88
64889;BME280;51386;53.082;8.816;2023-04-23T06:25:33;100678.03;;;16.40;53.31
64889;BME280;51386;53.082;8.816;2023-04-23T06:28:00;100674.72;;;16.45;52.76
64889;BME280;51386;53.082;8.816;2023-04-23T06:30:28;100672.22;;;16.50;52.62
64889;BME280;51386;53.082;8.816;2023-04-23T06:32:55;100671.19;;;16.51;53.05
64889;BME280;51386;53.082;8.816;2023-04-23T06:35:22;100672.88;;;16.52;52.75
64889;BME280;51386;53.082;8.816;2023-04-23T06:37:49;100663.22;;;16.51;52.58
64889;BME280;51386;53.082;8.816;2023-04-23T06:40:16;100663.44;;;16.49;52.83
64889;BME280;51386;53.082;8.816;2023-04-23T06:42:43;100670.81;;;16.54;52.75
64889;BME280;51386;53.082;8.816;2023-04-23T06:45:11;100658.88;;;16.63;52.59
64889;BME280;51386;53.082;8.816;2023-04-23T06:47:39;100662.38;;;16.63;52.34
64889;BME280;51386;53.082;8.816;2023-04-23T06:50:07;100664.78;;;16.65;52.44
64889;BME280;51386;53.082;8.816;2023-04-23T06:52:35;100667.44;;;16.65;52.04
64889;BME280;51386;53.082;8.816;2023-04-23T06:55:02;100662.72;;;16.67;51.52
64889;BME280;51386;53.082;8.816;2023-04-23T06:57:29;100674.13;;;16.74;51.13
64889;BME280;51386;53.082;8.816;2023-04-23T06:59:56;100668.22;;;16.72;51.77
64889;BME280;51386;53.082;8.816;2023-04-23T07:02:23;100660.41;;;16.77;51.66
64889;BME280;51386;53.082;8.816;2023-04-23T07:04:52;100650.78;;;16.76;51.72
64889;BME280;51386;53.082;8.816;2023-04-23T07:07:18;100652.19;;;16.85;51.82
64889;BME280;51386;53.082;8.816;2023-04-23T07:09:45;100661.81;;;17.04;51.53
64889;BME280;51386;53.082;8.816;2023-04-23T07:12:12;100658.44;;;17.15;51.09
64889;BME280;51386;53.082;8.816;2023-04-23T07:14:39;100656.69;;;17.27;50.95
64889;BME280;51386;53.082;8.816;2023-04-23T07:17:07;100659.50;;;17.32;50.73
64889;BME280;51386;53.082;8.816;2023-04-23T07:19:34;100661.69;;;17.35;50.48
64889;BME280;51386;53.082;8.816;2023-04-23T07:22:02;100664.97;;;17.37;50.42
64889;BME280;51386;53.082;8.816;2023-04-23T07:24:29;100655.19;;;17.31;50.37
64889;BME280;51386;53.082;8.816;2023-04-23T07:26:56;100665.03;;;17.31;50.21
64889;BME280;51386;53.082;8.816;2023-04-23T07:29:24;100665.34;;;17.41;50.24
64889;BME280;51386;53.082;8.816;2023-04-23T07:31:51;100665.81;;;17.56;49.75
64889;BME280;51386;53.082;8.816;2023-04-23T07:34:18;100664.94;;;18.10;49.11
64889;BME280;51386;53.082;8.816;2023-04-23T07:36:45;100659.91;;;18.61;47.21
64889;BME280;51386;53.082;8.816;2023-04-23T07:39:13;100654.63;;;19.31;46.59
64889;BME280;51386;53.082;8.816;2023-04-23T07:41:40;100656.94;;;20.02;44.33
64889;BME280;51386;53.082;8.816;2023-04-23T07:44:07;100651.09;;;20.78;43.61
64889;BME280;51386;53.082;8.816;2023-04-23T07:46:34;100639.53;;;21.44;41.51
64889;BME280;51386;53.082;8.816;2023-04-23T07:49:01;100646.88;;;21.97;41.16
64889;BME280;51386;53.082;8.816;2023-04-23T07:51:29;100638.47;;;22.37;40.20
64889;BME280;51386;53.082;8.816;2023-04-23T07:53:57;100642.44;;;22.92;38.79
64889;BME280;51386;53.082;8.816;2023-04-23T07:56:25;100640.63;;;23.45;37.45
64889;BME280;51386;53.082;8.816;2023-04-23T07:58:53;100638.69;;;23.97;36.27
64889;BME280;51386;53.082;8.816;2023-04-23T08:01:22;100638.25;;;24.56;35.47
64889;BME280;51386;53.082;8.816;2023-04-23T08:03:49;100633.38;;;25.08;34.87
64889;BME280;51386;53.082;8.816;2023-04-23T08:06:19;100645.44;;;25.46;32.89
64889;BME280;51386;53.082;8.816;2023-04-23T08:08:46;100645.59;;;25.75;33.39
64889;BME280;51386;53.082;8.816;2023-04-23T08:11:13;100636.75;;;26.18;32.39
64889;BME280;51386;53.082;8.816;2023-04-23T08:13:41;100630.94;;;26.73;31.24
64889;BME280;51386;53.082;8.816;2023-04-23T08:16:08;100621.59;;;27.18;30.53
64889;BME280;51386;53.082;8.816;2023-04-23T08:18:35;100616.81;;;27.58;29.19
64889;BME280;51386;53.082;8.816;2023-04-23T08:21:03;100604.22;;;27.90;28.71
64889;BME280;51386;53.082;8.816;2023-04-23T08:23:30;100599.63;;;28.09;27.88
64889;BME280;51386;53.082;8.816;2023-04-23T08:25:57;100599.34;;;28.11;27.35
64889;BME280;51386;53.082;8.816;2023-04-23T08:28:24;100600.66;;;28.13;27.51
64889;BME280;51386;53.082;8.816;2023-04-23T08:30:52;100602.53;;;28.32;27.11
64889;BME280;51386;53.082;8.816;2023-04-23T08:33:20;100599.25;;;28.67;26.61
64889;BME280;51386;53.082;8.816;2023-04-23T08:35:47;100595.84;;;29.21;25.52
64889;BME280;51386;53.082;8.816;2023-04-23T08:38:13;100599.19;;;29.67;26.01
64889;BME280;51386;53.082;8.816;2023-04-23T08:40:41;100590.00;;;30.26;25.02
64889;BME280;51386;53.082;8.816;2023-04-23T08:43:15;100581.03;;;30.70;24.17
64889;BME280;51386;53.082;8.816;2023-04-23T08:45:48;100573.91;;;31.22;23.32
64889;BME280;51386;53.082;8.816;2023-04-23T08:48:18;100576.91;;;31.68;23.24
64889;BME280;51386;53.082;8.816;2023-04-23T08:50:45;100574.38;;;32.15;22.51
64889;BME280;51386;53.082;8.816;2023-04-23T08:53:17;100573.53;;;32.57;22.02
64889;BME280;51386;53.082;8.816;2023-04-23T08:55:47;100577.88;;;33.33;21.96
64889;BME280;51386;53.082;8.816;2023-04-23T08:58:15;100568.06;;;34.03;20.56
64889;BME280;51386;53.082;8.816;2023-04-23T09:00:42;100572.19;;;34.30;19.57
64889;BME280;51386;53.082;8.816;2023-04-23T09:03:11;100572.56;;;33.87;19.78
64889;BME280;51386;53.082;8.816;2023-04-23T09:05:40;100579.16;;;33.86;19.87
64889;BME280;51386;53.082;8.816;2023-04-23T09:08:09;100572.38;;;33.92;19.50
64889;BME280;51386;53.082;8.816;2023-04-23T09:10:39;100577.91;;;34.04;19.36
64889;BME280;51386;53.082;8.816;2023-04-23T09:13:07;100577.03;;;34.12;19.15
64889;BME280;51386;53.082;8.816;2023-04-23T09:15:35;100564.59;;;34.47;18.63
64889;BME280;51386;53.082;8.816;2023-04-23T09:18:06;100566.25;;;34.60;18.13
64889;BME280;51386;53.082;8.816;2023-04-23T09:20:33;100571.53;;;34.78;18.00
64889;BME280;51386;53.082;8.816;2023-04-23T09:23:06;100550.13;;;34.92;17.32
64889;BME280;51386;53.082;8.816;2023-04-23T09:25:34;100551.28;;;35.03;17.12
64889;BME280;51386;53.082;8.816;2023-04-23T09:28:07;100551.69;;;34.93;17.67
64889;BME280;51386;53.082;8.816;2023-04-23T09:30:42;100537.34;;;35.32;17.37
64889;BME280;51386;53.082;8.816;2023-04-23T09:33:11;100543.06;;;35.15;16.46
64889;BME280;51386;53.082;8.816;2023-04-23T09:35:38;100544.19;;;34.78;17.42
64889;BME280;51386;53.082;8.816;2023-04-23T09:38:10;100539.38;;;34.87;17.38
64889;BME280;51386;53.082;8.816;2023-04-23T09:40:37;100543.84;;;34.91;17.18
64889;BME280;51386;53.082;8.816;2023-04-23T09:43:05;100526.81;;;34.73;17.63
64889;BME280;51386;53.082;8.816;2023-04-23T09:45:33;100524.09;;;34.86;16.92
64889;BME280;51386;53.082;8.816;2023-04-23T09:48:01;100526.84;;;34.98;17.02
64889;BME280;51386;53.082;8.816;2023-04-23T09:50:33;100525.97;;;35.06;17.04
64889;BME280;51386;53.082;8.816;2023-04-23T09:53:00;100538.13;;;34.96;17.40
64889;BME280;51386;53.082;8.816;2023-04-23T09:55:30;100537.47;;;34.87;17.52
64889;BME280;51386;53.082;8.816;2023-04-23T09:58:02;100530.81;;;35.00;17.76
64889;BME280;51386;53.082;8.816;2023-04-23T10:00:34;100531.94;;;35.35;17.45
64889;BME280;51386;53.082;8.816;2023-04-23T10:03:03;100526.53;;;35.75;17.71
64889;BME280;51386;53.082;8.816;2023-04-23T10:05:30;100521.63;;;36.40;17.18
64889;BME280;51386;53.082;8.816;2023-04-23T10:08:18;100519.19;;;36.35;16.04
64889;BME280;51386;53.082;8.816;2023-04-23T10:10:47;100525.69;;;36.15;16.45
64889;BME280;51386;53.082;8.816;2023-04-23T10:13:17;100527.69;;;36.02;16.83
64889;BME280;51386;53.082;8.816;2023-04-23T10:15:47;100515.59;;;36.19;17.17
64889;BME280;51386;53.082;8.816;2023-04-23T10:18:14;100523.81;;;36.62;15.84
64889;BME280;51386;53.082;8.816;2023-04-23T10:20:42;100524.25;;;36.64;16.33
64889;BME280;51386;53.082;8.816;2023-04-23T10:23:11;100526.91;;;36.60;16.04
64889;BME280;51386;53.082;8.816;2023-04-23T10:25:41;100519.19;;;36.66;16.06
64889;BME280;51386;53.082;8.816;2023-04-23T10:28:11;100513.88;;;36.73;16.72
64889;BME280;51386;53.082;8.816;2023-04-23T10:30:41;100522.00;;;36.85;16.01
64889;BME280;51386;53.082;8.816;2023-04-23T10:33:11;100523.88;;;36.97;15.77
64889;BME280;51386;53.082;8.816;2023-04-23T10:35:56;100517.28;;;35.95;17.09
64889;BME280;51386;53.082;8.816;2023-04-23T10:38:25;100500.13;;;35.31;17.23
64889;BME280;51386;53.082;8.816;2023-04-23T10:40:55;100503.22;;;34.93;17.95
64889;BME280;51386;53.082;8.816;2023-04-23T10:43:25;100501.75;;;34.71;18.13
64889;BME280;51386;53.082;8.816;2023-04-23T10:45:53;100506.31;;;34.92;18.19
64889;BME280;51386;53.082;8.816;2023-04-23T10:48:20;100493.53;;;35.32;18.01
64889;BME280;51386;53.082;8.816;2023-04-23T10:50:56;100489.97;;;36.27;17.64
64889;BME280;51386;53.082;8.816;2023-04-23T10:53:44;100490.69;;;37.21;17.06
64889;BME280;51386;53.082;8.816;2023-04-23T10:56:11;100492.56;;;36.82;16.54
64889;BME280;51386;53.082;8.816;2023-04-23T10:58:49;100495.09;;;35.85;17.99
64889;BME280;51386;53.082;8.816;2023-04-23T11:01:17;100483.28;;;35.05;18.30
64889;BME280;51386;53.082;8.816;2023-04-23T11:03:44;100484.28;;;34.40;19.09
64889;BME280;51386;53.082;8.816;2023-04-23T11:06:18;100481.44;;;33.83;19.60
64889;BME280;51386;53.082;8.816;2023-04-23T11:08:52;100479.31;;;33.26;20.03
64889;BME280;51386;53.082;8.816;2023-04-23T11:11:37;100478.03;;;32.19;21.37
64889;BME280;51386;53.082;8.816;2023-04-23T11:14:12;100473.72;;;31.41;22.04
64889;BME280;51386;53.082;8.816;2023-04-23T11:16:42;100479.09;;;30.90;22.43
64889;BME280;51386;53.082;8.816;2023-04-23T11:19:10;100478.44;;;30.53;23.48
64889;BME280;51386;53.082;8.816;2023-04-23T11:22:02;100482.69;;;31.16;22.90
64889;BME280;51386;53.082;8.816;2023-04-23T11:24:32;100476.63;;;31.87;21.94
64889;BME280;51386;53.082;8.816;2023-04-23T11:27:00;100478.16;;;32.40;20.90
64889;BME280;51386;53.082;8.816;2023-04-23T11:29:29;100471.66;;;31.98;21.05
64889;BME280;51386;53.082;8.816;2023-04-23T11:31:56;100469.94;;;31.59;22.01
64889;BME280;51386;53.082;8.816;2023-04-23T11:34:31;100463.47;;;31.21;22.35
64889;BME280;51386;53.082;8.816;2023-04-23T11:36:59;100469.19;;;30.94;22.76
64889;BME280;51386;53.082;8.816;2023-04-23T11:39:27;100464.66;;;30.80;22.83
64889;BME280;51386;53.082;8.816;2023-04-23T11:41:54;100463.50;;;30.73;23.28
64889;BME280;51386;53.082;8.816;2023-04-23T11:44:21;100457.13;;;30.86;23.52
64889;BME280;51386;53.082;8.816;2023-04-23T11:46:50;100451.19;;;30.75;23.04
64889;BME280;51386;53.082;8.816;2023-04-23T11:49:18;100452.63;;;30.73;22.84
64889;BME280;51386;53.082;8.816;2023-04-23T11:51:46;100457.06;;;30.60;23.38
64889;BME280;51386;53.082;8.816;2023-04-23T11:54:13;100446.78;;;30.18;23.43
64889;BME280;51386;53.082;8.816;2023-04-23T11:56:41;100434.56;;;30.07;23.11
64889;BME280;51386;53.082;8.816;2023-04-23T11:59:08;100447.56;;;30.19;23.50
64889;BME280;51386;53.082;8.816;2023-04-23T12:01:46;100444.41;;;29.94;23.95
64889;BME280;51386;53.082;8.816;2023-04-23T12:04:18;100442.81;;;29.58;24.34
64889;BME280;51386;53.082;8.816;2023-04-23T12:06:50;100432.63;;;29.41;24.55
64889;BME280;51386;53.082;8.816;2023-04-23T12:09:21;100450.59;;;29.01;24.91
64889;BME280;51386;53.082;8.816;2023-04-23T12:11:48;100442.59;;;28.69;25.45
64889;BME280;51386;53.082;8.816;2023-04-23T12:14:24;100447.66;;;28.30;26.16
64889;BME280;51386;53.082;8.816;2023-04-23T12:16:55;100446.97;;;27.73;27.08
64889;BME280;51386;53.082;8.816;2023-04-23T12:19:28;100440.69;;;27.22;27.85
64889;BME280;51386;53.082;8.816;2023-04-23T12:21:57;100440.38;;;26.86;27.93
64889;BME280;51386;53.082;8.816;2023-04-23T12:24:28;100451.66;;;26.64;29.03
64889;BME280;51386;53.082;8.816;2023-04-23T12:26:58;100439.13;;;26.73;29.10
64889;BME280;51386;53.082;8.816;2023-04-23T12:29:29;100434.78;;;26.77;28.75
64889;BME280;51386;53.082;8.816;2023-04-23T12:31:59;100436.63;;;26.82;29.46
64889;BME280;51386;53.082;8.816;2023-04-23T12:34:27;100430.03;;;27.12;28.85
64889;BME280;51386;53.082;8.816;2023-04-23T12:36:55;100416.22;;;28.01;27.99
64889;BME280;51386;53.082;8.816;2023-04-23T12:39:26;100426.50;;;28.86;26.68
64889;BME280;51386;53.082;8.816;2023-04-23T12:41:56;100424.22;;;28.66;27.05
64889;BME280;51386;53.082;8.816;2023-04-23T12:44:26;100411.63;;;28.15;27.90
64889;BME280;51386;53.082;8.816;2023-04-23T12:46:58;100425.63;;;27.72;28.42
64889;BME280;51386;53.082;8.816;2023-04-23T12:49:27;100419.78;;;27.27;29.26
64889;BME280;51386;53.082;8.816;2023-04-23T12:51:56;100421.56;;;26.76;30.21
64889;BME280;51386;53.082;8.816;2023-04-23T12:54:24;100422.22;;;26.39;30.58
64889;BME280;51386;53.082;8.816;2023-04-23T12:56:52;100412.69;;;26.23;31.25